1860 Tropical Storm NOT_NAMED (1860247N13298)


IBTrACS version v04r00. Visit IBTrACS website for data access.
Please direct all questions to the IBTrACS Q and A forum

Storm track - Intensity - Wind Radii - Intensity Data - Source Data - All data

Summary Information

Storm ID 1860247N13298
Start Sep 2 12Z
Landfall Sep 4 09Z
Max Intensity 50 kt (Sep 9 12Z)
End Sep 13 00Z
ATCF IDs
Track status Best track data.

Storm track plot

Map of storm track

Intensity plots

Map of storm track

Radial wind information

No radial wind information for this storm


Position and Intensity Table

BASIN ISO_TIME_________ NATURE LAT LON MLC WIND
degrees north degrees east kts
NA 1860-09-02 12:00:00 TS 12.50 -62.30 30
NA 15:00:00 TS 12.85 -62.56 30
NA 18:00:00 TS 13.20 -62.80 30
NA 21:00:00 TS 13.55 -63.01 30
NA 1860-09-03 00:00:00 TS 13.90 -63.20 30
NA 03:00:00 TS 14.26 -63.40 30
NA 06:00:00 TS 14.60 -63.60 30
NA 09:00:00 TS 14.88 -63.79 30
NA 12:00:00 TS 15.20 -64.00 30
NA 15:00:00 TS 15.63 -64.24 30
NA 18:00:00 TS 16.10 -64.50 30
NA 21:00:00 TS 16.51 -64.75 30
NA 1860-09-04 00:00:00 TS 16.90 -65.00 30
NA 03:00:00 TS 17.30 -65.25 30
NA 06:00:00 TS 17.70 -65.50 30
NA 09:00:00 TS 18.11 -65.75 30
NA 12:00:00 TS 18.50 -66.00 30
NA 15:00:00 TS 18.86 -66.26 30
NA 18:00:00 TS 19.20 -66.50 30
NA 21:00:00 TS 19.51 -66.70 30
NA 1860-09-05 00:00:00 TS 19.80 -66.90 30
NA 03:00:00 TS 20.10 -67.15 30
NA 06:00:00 TS 20.40 -67.40 30
NA 09:00:00 TS 20.70 -67.63 30
NA 12:00:00 TS 21.00 -67.80 30
NA 15:00:00 TS 21.31 -67.87 30
NA 18:00:00 TS 21.60 -67.90 30
NA 21:00:00 TS 21.85 -67.95 30
NA 1860-09-06 00:00:00 TS 22.10 -68.00 30
NA 03:00:00 TS 22.40 -68.05 30
NA 06:00:00 TS 22.70 -68.10 30
NA 09:00:00 TS 22.96 -68.18 32
NA 12:00:00 TS 23.20 -68.20 35
NA 15:00:00 TS 23.46 -68.08 35
NA 18:00:00 TS 23.70 -67.90 35
NA 21:00:00 TS 23.91 -67.75 35
NA 1860-09-07 00:00:00 TS 24.10 -67.60 35
NA 03:00:00 TS 24.29 -67.45 35
NA 06:00:00 TS 24.50 -67.30 35
NA 09:00:00 TS 24.74 -67.18 37
NA 12:00:00 TS 25.00 -67.00 40
NA 15:00:00 TS 25.26 -66.67 40
NA 18:00:00 TS 25.50 -66.30 40
NA 21:00:00 TS 25.70 -65.99 40
NA 1860-09-08 00:00:00 TS 25.90 -65.70 40
NA 03:00:00 TS 26.15 -65.40 40
NA 06:00:00 TS 26.40 -65.10 40
NA 09:00:00 TS 26.58 -64.83 42
NA 12:00:00 TS 26.80 -64.50 45
NA 15:00:00 TS 27.16 -64.03 45
NA 18:00:00 TS 27.60 -63.50 45
NA 21:00:00 TS 28.04 -63.00 45
NA 1860-09-09 00:00:00 TS 28.50 -62.50 45
NA 03:00:00 TS 28.96 -62.00 45
NA 06:00:00 TS 29.40 -61.50 45
NA 09:00:00 TS 29.78 -61.02 47
NA 12:00:00 TS 30.20 -60.50 50
NA 15:00:00 TS 30.72 -59.87 50
NA 18:00:00 TS 31.30 -59.20 50
NA 21:00:00 TS 31.89 -58.56 50
NA 1860-09-10 00:00:00 TS 32.50 -57.90 50
NA 03:00:00 TS 33.11 -57.20 50
NA 06:00:00 TS 33.70 -56.50 50
NA 09:00:00 TS 34.24 -55.83 50
NA 12:00:00 TS 34.80 -55.20 50
NA 15:00:00 TS 35.43 -54.63 50
NA 18:00:00 TS 36.10 -54.10 50
NA 21:00:00 TS 36.75 -53.60 50
NA 1860-09-11 00:00:00 TS 37.40 -53.10 50
NA 03:00:00 TS 38.05 -52.55 50
NA 06:00:00 TS 38.70 -52.00 50
NA 09:00:00 TS 39.34 -51.55 50
NA 12:00:00 TS 40.00 -51.00 50
NA 15:00:00 TS 40.70 -50.17 50
NA 18:00:00 TS 41.40 -49.20 50
NA 21:00:00 TS 42.06 -48.25 50
NA 1860-09-12 00:00:00 TS 42.70 -47.30 50
NA 03:00:00 TS 43.35 -46.39 50
NA 06:00:00 TS 44.00 -45.50 50
NA 09:00:00 TS 44.65 -44.58 50
NA 12:00:00 TS 45.30 -43.70 50
NA 15:00:00 TS 45.95 -42.88 50
NA 18:00:00 TS 46.60 -42.10 50
NA 21:00:00 TS 47.25 -41.31 47
NA 1860-09-13 00:00:00 TS 47.90 -40.50 45

Source Information

Agency Information
USA
TOKYO
CMA
HKO
NEWDELHI
REUNION
BOM
NADI
WELLINGTON
DS824
TD9636
TD9635
NEUMANN
MLC

All available IBTrACS Data

SEASON BASIN SUBBASIN ISO_TIME_________ NATURE LAT LON DIST2LAND LANDFALL IFLAG USA SSHS MLC LAT MLC LON MLC CLASS MLC WIND STORM SPEED STORM DIR
Year degrees north degrees east km km 1 degrees north degrees east kts kts degrees
1860 NA CS 1860-09-02 12:00:00 TS 12.50 -62.30 201 201 _____________O -1 12.50 -62.30 TD 30 9 324
1860 NA CS 15:00:00 TS 12.85 -62.56 246 246 _____________P -1 12.85 -62.56 TD 30 9 325
1860 NA CS 18:00:00 TS 13.20 -62.80 279 279 _____________O -1 13.20 -62.80 TD 30 8 328
1860 NA CS 21:00:00 TS 13.55 -63.01 313 313 _____________P -1 13.55 -63.01 TD 30 8 331
1860 NA CS 1860-09-03 00:00:00 TS 13.90 -63.20 358 358 _____________O -1 13.90 -63.20 TD 30 8 332
1860 NA CS 03:00:00 TS 14.26 -63.40 404 404 _____________P -1 14.26 -63.40 TD 30 8 331
1860 NA CS 06:00:00 TS 14.60 -63.60 440 407 _____________O -1 14.60 -63.60 TD 30 7 329
1860 NA CS 09:00:00 TS 14.88 -63.79 407 367 _____________P -1 14.88 -63.79 TD 30 7 327
1860 NA CS 12:00:00 TS 15.20 -64.00 367 318 _____________O -1 15.20 -64.00 TD 30 9 330
1860 NA CS 15:00:00 TS 15.63 -64.24 318 253 _____________P -1 15.63 -64.24 TD 30 10 332
1860 NA CS 18:00:00 TS 16.10 -64.50 253 204 _____________O -1 16.10 -64.50 TD 30 10 331
1860 NA CS 21:00:00 TS 16.51 -64.75 198 149 _____________P -1 16.51 -64.75 TD 30 9 329
1860 NA CS 1860-09-04 00:00:00 TS 16.90 -65.00 149 100 _____________O -1 16.90 -65.00 TD 30 9 329
1860 NA CS 03:00:00 TS 17.30 -65.25 94 46 _____________P -1 17.30 -65.25 TD 30 9 329
1860 NA CS 06:00:00 TS 17.70 -65.50 46 10 _____________O -1 17.70 -65.50 TD 30 9 329
1860 NA CS 09:00:00 TS 18.11 -65.75 0 0 _____________P -1 18.11 -65.75 TD 30 9 329
1860 NA NA 12:00:00 TS 18.50 -66.00 11 11 _____________O -1 18.50 -66.00 TD 30 9 328
1860 NA NA 15:00:00 TS 18.86 -66.26 55 55 _____________P -1 18.86 -66.26 TD 30 8 326
1860 NA NA 18:00:00 TS 19.20 -66.50 89 89 _____________O -1 19.20 -66.50 TD 30 8 327
1860 NA NA 21:00:00 TS 19.51 -66.70 123 123 _____________P -1 19.51 -66.70 TD 30 7 328
1860 NA NA 1860-09-05 00:00:00 TS 19.80 -66.90 156 156 _____________O -1 19.80 -66.90 TD 30 7 325
1860 NA NA 03:00:00 TS 20.10 -67.15 190 190 _____________P -1 20.10 -67.15 TD 30 8 322
1860 NA NA 06:00:00 TS 20.40 -67.40 218 218 _____________O -1 20.40 -67.40 TD 30 8 323
1860 NA NA 09:00:00 TS 20.70 -67.63 236 229 _____________P -1 20.70 -67.63 TD 30 7 328
1860 NA NA 12:00:00 TS 21.00 -67.80 246 246 _____________O -1 21.00 -67.80 TD 30 7 339
1860 NA NA 15:00:00 TS 21.31 -67.87 267 267 _____________P -1 21.31 -67.87 TD 30 6 351
1860 NA NA 18:00:00 TS 21.60 -67.90 295 295 _____________O -1 21.60 -67.90 TD 30 6 353
1860 NA NA 21:00:00 TS 21.85 -67.95 320 310 _____________P -1 21.85 -67.95 TD 30 5 349
1860 NA NA 1860-09-06 00:00:00 TS 22.10 -68.00 341 341 _____________O -1 22.10 -68.00 TD 30 6 351
1860 NA NA 03:00:00 TS 22.40 -68.05 372 368 _____________P -1 22.40 -68.05 TD 30 6 352
1860 NA NA 06:00:00 TS 22.70 -68.10 398 398 _____________O -1 22.70 -68.10 TD 30 6 348
1860 NA NA 09:00:00 TS 22.96 -68.18 423 423 _____________P -1 22.96 -68.18 TD 32 5 350
1860 NA NA 12:00:00 TS 23.20 -68.20 443 443 _____________O -1 23.20 -68.20 TS 35 5 10
1860 NA NA 15:00:00 TS 23.46 -68.08 478 478 _____________P -1 23.46 -68.08 TS 35 6 29
1860 NA NA 18:00:00 TS 23.70 -67.90 507 507 _____________O -1 23.70 -67.90 TS 35 5 34
1860 NA NA 21:00:00 TS 23.91 -67.75 536 536 _____________P -1 23.91 -67.75 TS 35 5 34
1860 NA NA 1860-09-07 00:00:00 TS 24.10 -67.60 560 560 _____________O -1 24.10 -67.60 TS 35 5 36
1860 NA NA 03:00:00 TS 24.29 -67.45 589 589 _____________P -1 24.29 -67.45 TS 35 5 34
1860 NA NA 06:00:00 TS 24.50 -67.30 614 614 _____________O -1 24.50 -67.30 TS 35 5 29
1860 NA NA 09:00:00 TS 24.74 -67.18 638 638 _____________P -1 24.74 -67.18 TS 37 6 29
1860 NA NA 12:00:00 TS 25.00 -67.00 677 677 _____________O -1 25.00 -67.00 TS 40 7 42
1860 NA NA 15:00:00 TS 25.26 -66.67 721 721 _____________P -1 25.26 -66.67 TS 40 8 52
1860 NA NA 18:00:00 TS 25.50 -66.30 758 758 _____________O -1 25.50 -66.30 TS 40 8 54
1860 NA NA 21:00:00 TS 25.70 -65.99 791 791 _____________P -1 25.70 -65.99 TS 40 7 54
1860 NA NA 1860-09-08 00:00:00 TS 25.90 -65.70 824 824 _____________O -1 25.90 -65.70 TS 40 7 50
1860 NA NA 03:00:00 TS 26.15 -65.40 858 858 _____________P -1 26.15 -65.40 TS 40 7 47
1860 NA NA 06:00:00 TS 26.40 -65.10 895 895 _____________O -1 26.40 -65.10 TS 40 7 50
1860 NA NA 09:00:00 TS 26.58 -64.83 920 920 _____________P -1 26.58 -64.83 TS 42 7 53
1860 NA NA 12:00:00 TS 26.80 -64.50 945 945 _____________O -1 26.80 -64.50 TS 45 9 51
1860 NA NA 15:00:00 TS 27.16 -64.03 997 997 _____________P -1 27.16 -64.03 TS 45 12 48
1860 NA NA 18:00:00 TS 27.60 -63.50 1050 1050 _____________O -1 27.60 -63.50 TS 45 13 46
1860 NA NA 21:00:00 TS 28.04 -63.00 1105 1105 _____________P -1 28.04 -63.00 TS 45 13 44
1860 NA NA 1860-09-09 00:00:00 TS 28.50 -62.50 1172 1172 _____________O -1 28.50 -62.50 TS 45 13 44
1860 NA NA 03:00:00 TS 28.96 -62.00 1239 1239 _____________P -1 28.96 -62.00 TS 45 13 44
1860 NA NA 06:00:00 TS 29.40 -61.50 1297 1297 _____________O -1 29.40 -61.50 TS 45 12 46
1860 NA NA 09:00:00 TS 29.78 -61.02 1356 1356 _____________P -1 29.78 -61.02 TS 47 12 47
1860 NA NA 12:00:00 TS 30.20 -60.50 1415 1415 _____________O -1 30.20 -60.50 TS 50 14 47
1860 NA NA 15:00:00 TS 30.72 -59.87 1489 1460 _____________P -1 30.72 -59.87 TS 50 16 45
1860 NA NA 18:00:00 TS 31.30 -59.20 1460 1418 _____________O -1 31.30 -59.20 TS 50 16 44
1860 NA NA 21:00:00 TS 31.89 -58.56 1418 1383 _____________P -1 31.89 -58.56 TS 50 16 43
1860 NA NA 1860-09-10 00:00:00 TS 32.50 -57.90 1383 1354 _____________O -1 32.50 -57.90 TS 50 17 43
1860 NA NA 03:00:00 TS 33.11 -57.20 1354 1329 _____________P -1 33.11 -57.20 TS 50 17 44
1860 NA NA 06:00:00 TS 33.70 -56.50 1329 1301 _____________O -1 33.70 -56.50 TS 50 16 45
1860 NA NA 09:00:00 TS 34.24 -55.83 1304 1260 _____________P -1 34.24 -55.83 TS 50 15 44
1860 NA NA 12:00:00 TS 34.80 -55.20 1260 1216 _____________O -1 34.80 -55.20 TS 50 15 40
1860 NA NA 15:00:00 TS 35.43 -54.63 1220 1168 _____________P -1 35.43 -54.63 TS 50 16 35
1860 NA NA 18:00:00 TS 36.10 -54.10 1168 1101 _____________O -1 36.10 -54.10 TS 50 16 32
1860 NA NA 21:00:00 TS 36.75 -53.60 1101 1023 _____________P -1 36.75 -53.60 TS 50 15 32
1860 NA NA 1860-09-11 00:00:00 TS 37.40 -53.10 1023 957 _____________O -1 37.40 -53.10 TS 50 15 33
1860 NA NA 03:00:00 TS 38.05 -52.55 958 883 _____________P -1 38.05 -52.55 TS 50 16 34
1860 NA NA 06:00:00 TS 38.70 -52.00 883 821 _____________O -1 38.70 -52.00 TS 50 15 31
1860 NA NA 09:00:00 TS 39.34 -51.55 823 754 _____________P -1 39.34 -51.55 TS 50 15 31
1860 NA NA 12:00:00 TS 40.00 -51.00 754 698 _____________O -1 40.00 -51.00 TS 50 17 38
1860 NA NA 15:00:00 TS 40.70 -50.17 698 656 _____________P -1 40.70 -50.17 TS 50 20 44
1860 NA NA 18:00:00 TS 41.40 -49.20 659 637 _____________O -1 41.40 -49.20 TS 50 20 47
1860 NA NA 21:00:00 TS 42.06 -48.25 637 629 _____________P -1 42.06 -48.25 TS 50 19 47
1860 NA NA 1860-09-12 00:00:00 TS 42.70 -47.30 635 633 _____________O -1 42.70 -47.30 TS 50 19 47
1860 NA NA 03:00:00 TS 43.35 -46.39 646 644 _____________P -1 43.35 -46.39 TS 50 18 45
1860 NA NA 06:00:00 TS 44.00 -45.50 660 660 _____________O -1 44.00 -45.50 TS 50 18 45
1860 NA NA 09:00:00 TS 44.65 -44.58 693 693 _____________P -1 44.65 -44.58 TS 50 18 45
1860 NA NA 12:00:00 TS 45.30 -43.70 721 721 _____________O -1 45.30 -43.70 TS 50 18 43
1860 NA NA 15:00:00 TS 45.95 -42.88 757 757 _____________P -1 45.95 -42.88 TS 50 17 41
1860 NA NA 18:00:00 TS 46.60 -42.10 797 797 _____________O -1 46.60 -42.10 TS 50 17 40
1860 NA NA 21:00:00 TS 47.25 -41.31 846 846 _____________P -1 47.25 -41.31 TS 47 17 40
1860 NA NA 1860-09-13 00:00:00 TS 47.90 -40.50 901 _____________O -1 47.90 -40.50 TS 45 17 40